Mount Victory, Ohio
Current Conditions -  °F | °C
As of 11:50 PM on Saturday 22 Nov 2014 (Local Time) from KEDJ Reporting Station
Broken Clouds Broken Clouds  
Wind Chill: 44°   Ceiling: 3900
Heat Index: 48°   Visibility: 10mi
Dew Point: 36°   Wind: 10mph
Humidity: 62%   Direction: 180°S
Pressure: 30.04"   Gusts: NA
Location:  40.53°N, 83.52°W
Report Text: KEDJ 230450Z AUTO 18009KT 10SM BKN039 09/02 A3004 RMK AO1
Loading
Personal Weather Stations






























Interactive Weather Map New forecast layout! Learn more

10-Day Weather Forecast

Advertisements
Track Severe Weather on mobile